Time;durP1;ratioP1;P1;durP2;ratioP2;P2;SDS_P1;SDS_P2;PMS_P1;PMS_P2;Temp;Humidity;BMP_temperature;BMP_pressure;BME280_temperature;BME280_humidity;BME280_pressure;Samples;Min_cycle;Max_cycle;Signal;HPM_P1;HPM_P2
2023/01/04 00:00:49;;;;;;;97.67;54.47;;;;;;;5.64;96.44;100362.88;5072053;28;20434;-58
2023/01/04 00:03:16;;;;;;;82.03;53.63;;;;;;;5.59;96.97;100365.22;5072028;28;20190;-58
2023/01/04 00:05:43;;;;;;;87.47;54.10;;;;;;;5.68;97.67;100365.66;5072205;28;20193;-58
2023/01/04 00:08:09;;;;;;;85.90;56.80;;;;;;;5.78;96.60;100366.97;5071935;28;20605;-57
2023/01/04 00:10:36;;;;;;;89.27;55.90;;;;;;;5.65;96.23;100344.25;5071987;28;20185;-58
2023/01/04 00:13:03;;;;;;;94.97;57.83;;;;;;;5.63;95.02;100376.44;5072113;28;20543;-58
2023/01/04 00:15:30;;;;;;;88.93;56.73;;;;;;;5.59;95.56;100375.41;5071830;28;20222;-58
2023/01/04 00:17:58;;;;;;;93.80;57.60;;;;;;;5.66;95.33;100381.69;5071933;28;20251;-59
2023/01/04 00:20:24;;;;;;;102.27;57.13;;;;;;;5.56;94.45;100384.56;5071648;28;20192;-58
2023/01/04 00:22:51;;;;;;;84.97;56.10;;;;;;;5.31;94.86;100357.84;5071718;28;20205;-58
2023/01/04 00:25:18;;;;;;;85.47;52.70;;;;;;;5.38;95.32;100384.53;5071699;28;20245;-58
2023/01/04 00:27:45;;;;;;;79.03;52.80;;;;;;;5.39;96.46;100376.06;5068675;28;20192;-58
2023/01/04 00:30:12;;;;;;;89.10;50.77;;;;;;;5.18;96.34;100365.69;5051513;28;20222;-58
2023/01/04 00:32:39;;;;;;;80.57;49.70;;;;;;;5.23;97.51;100379.53;5068059;28;20208;-58
2023/01/04 00:35:08;;;;;;;72.73;46.83;;;;;;;5.23;97.45;100386.28;5052058;28;20188;-58
2023/01/04 00:37:35;;;;;;;71.20;47.13;;;;;;;5.31;97.09;100382.44;5051598;28;20205;-57
2023/01/04 00:40:01;;;;;;;78.10;51.00;;;;;;;5.39;97.36;100391.34;5051688;28;20199;-58
2023/01/04 00:42:28;;;;;;;77.57;49.97;;;;;;;5.45;97.17;100385.69;5051702;28;20218;-58
2023/01/04 00:44:55;;;;;;;78.73;48.03;;;;;;;5.45;96.12;100380.59;5051612;28;20202;-58
2023/01/04 00:47:22;;;;;;;71.30;47.63;;;;;;;5.50;96.80;100390.22;5060063;28;20254;-58
2023/01/04 00:49:48;;;;;;;73.47;47.00;;;;;;;5.59;95.92;100389.81;5075403;28;20227;-58
2023/01/04 00:52:17;;;;;;;73.30;46.30;;;;;;;5.63;95.99;100386.63;5075420;28;20197;-57
2023/01/04 00:54:43;;;;;;;73.07;46.87;;;;;;;5.67;95.68;100386.84;5075240;28;20191;-59
2023/01/04 00:57:10;;;;;;;68.70;45.70;;;;;;;5.68;95.05;100390.28;5075066;28;20198;-58
2023/01/04 00:59:37;;;;;;;76.53;46.93;;;;;;;5.73;94.86;100393.94;5075261;28;20195;-58
2023/01/04 01:02:04;;;;;;;70.50;46.37;;;;;;;5.73;94.42;100397.34;5075030;28;20188;-58
2023/01/04 01:04:30;;;;;;;68.37;45.27;;;;;;;5.73;94.90;100402.47;5074477;28;20605;-58
2023/01/04 01:06:57;;;;;;;64.37;43.33;;;;;;;5.73;94.49;100406.69;5055232;28;20659;-58
2023/01/04 01:09:25;;;;;;;60.50;40.83;;;;;;;5.64;93.87;100408.75;5055062;28;20215;-58
2023/01/04 01:11:53;;;;;;;65.03;44.70;;;;;;;5.49;94.51;100375.75;5055356;28;20197;-58
2023/01/04 01:14:22;;;;;;;60.60;40.20;;;;;;;5.64;95.15;100403.66;5054930;28;20264;-58
2023/01/04 01:16:49;;;;;;;56.07;40.03;;;;;;;5.67;94.42;100406.38;5054948;28;20202;-58
2023/01/04 01:19:16;;;;;;;60.72;45.20;;;;;;;5.67;95.27;100403.81;5055646;28;20521;-58
2023/01/04 01:21:43;;;;;;;55.40;38.37;;;;;;;5.76;95.35;100399.19;5065957;28;20273;-58
2023/01/04 01:24:16;;;;;;;53.20;37.63;;;;;;;5.64;94.90;100398.56;5054769;28;20252;-58
2023/01/04 01:26:44;;;;;;;55.53;37.30;;;;;;;5.68;95.30;100392.84;5054760;28;20260;-58
2023/01/04 01:29:11;;;;;;;54.97;38.03;;;;;;;5.53;94.86;100379.31;5054663;28;20296;-57
2023/01/04 01:31:38;;;;;;;57.37;38.93;;;;;;;5.67;95.61;100393.63;5054743;28;20186;-57
2023/01/04 01:34:04;;;;;;;49.90;36.47;;;;;;;5.65;95.61;100395.22;5054664;28;20277;-57
2023/01/04 01:36:31;;;;;;;54.43;36.97;;;;;;;5.70;95.49;100392.09;5054611;28;20190;-58
2023/01/04 01:38:58;;;;;;;60.90;39.63;;;;;;;5.66;95.00;100397.84;5054514;28;20194;-57
2023/01/04 01:41:27;;;;;;;55.90;37.97;;;;;;;5.66;95.58;100391.88;5054083;28;20211;-58
2023/01/04 01:44:00;;;;;;;55.17;38.80;;;;;;;5.68;95.47;100388.63;5054184;28;20192;-57
2023/01/04 01:46:34;;;;;;;54.97;36.73;;;;;;;5.65;95.38;100390.13;5064382;28;20198;-58
2023/01/04 01:49:05;;;;;;;53.40;38.60;;;;;;;5.63;95.95;100389.19;5074500;28;20189;-57
2023/01/04 01:51:34;;;;;;;61.90;41.92;;;;;;;5.54;96.36;100392.16;5073923;28;20434;-57
2023/01/04 01:54:06;;;;;;;51.57;38.30;;;;;;;5.55;95.22;100395.56;5074245;28;20202;-58
2023/01/04 01:56:38;;;;;;;52.20;37.60;;;;;;;5.43;95.85;100390.72;5074786;28;20190;-57
2023/01/04 01:59:07;;;;;;;61.53;42.38;;;;;;;5.27;95.49;100358.47;5074207;28;20433;-58
2023/01/04 02:01:35;;;;;;;54.87;38.17;;;;;;;5.47;95.40;100379.88;5074054;28;20195;-58
2023/01/04 02:04:03;;;;;;;54.43;38.83;;;;;;;5.55;95.65;100385.38;5073999;28;20252;-58
2023/01/04 02:06:33;;;;;;;55.03;37.77;;;;;;;5.59;95.09;100387.25;5074047;28;20224;-58
2023/01/04 02:09:02;;;;;;;56.33;38.07;;;;;;;5.55;95.35;100380.28;5073823;28;20327;-57
2023/01/04 02:11:29;;;;;;;55.77;38.30;;;;;;;5.51;95.01;100384.34;5063476;28;20194;-58
2023/01/04 02:16:50;;;;;;;49.97;34.97;;;;;;;5.48;94.99;100383.31;5054065;28;20247;-58
2023/01/04 02:19:38;;;;;;;59.90;36.70;;;;;;;5.49;94.44;100388.50;5053858;28;20203;-57
2023/01/04 02:22:33;;;;;;;49.47;35.73;;;;;;;5.48;95.09;100385.84;5054271;28;20200;-58
2023/01/04 02:25:24;;;;;;;54.17;34.90;;;;;;;5.47;94.12;100379.00;5053977;28;20563;-57
2023/01/04 02:27:56;;;;;;;53.00;36.50;;;;;;;5.42;94.09;100378.78;5054123;28;20191;-58
2023/01/04 02:30:59;;;;;;;54.90;36.50;;;;;;;5.43;94.57;100377.09;5054157;28;20266;-58
2023/01/04 02:33:39;;;;;;;53.80;36.00;;;;;;;5.45;94.53;100372.94;5053462;28;20609;-58
2023/01/04 02:36:15;;;;;;;55.60;36.43;;;;;;;5.28;94.76;100347.50;5053980;28;20246;-57
2023/01/04 02:38:54;;;;;;;54.83;37.80;;;;;;;5.40;94.81;100376.94;5053762;28;20185;-58
2023/01/04 02:41:27;;;;;;;56.17;39.80;;;;;;;5.32;94.63;100371.47;5053294;28;20199;-58
2023/01/04 02:46:49;;;;;;;54.27;35.27;;;;;;;5.41;94.23;100383.81;5073325;28;20559;-58
2023/01/04 02:52:01;;;;;;;49.03;35.63;;;;;;;5.35;94.67;100384.38;5073164;28;20199;-58
2023/01/04 02:54:32;;;;;;;48.63;33.93;;;;;;;5.33;94.39;100376.63;5073031;28;20721;-58
2023/01/04 02:57:28;;;;;;;45.90;33.33;;;;;;;5.38;93.96;100384.53;5073302;28;20195;-58
2023/01/04 03:00:19;;;;;;;54.23;35.07;;;;;;;5.25;94.20;100388.09;5073394;28;20201;-58
2023/01/04 03:06:17;;;;;;;47.27;32.43;;;;;;;5.01;95.02;100393.59;5073273;28;20201;-57
2023/01/04 03:08:59;;;;;;;50.50;34.70;;;;;;;4.78;95.89;100384.75;5073087;28;20582;-58
2023/01/04 03:14:21;;;;;;;66.03;42.90;;;;;;;4.80;96.71;100410.28;5056341;28;20781;-58
2023/01/04 03:16:50;;;;;;;62.33;40.97;;;;;;;4.59;97.24;100399.81;5052851;28;20191;-58
2023/01/04 03:19:50;;;;;;;62.50;40.80;;;;;;;4.65;97.79;100417.97;5052642;28;20193;-58
2023/01/04 03:36:12;;;;;;;56.53;39.23;;;;;;;4.36;98.10;100425.69;5068623;28;20286;-58
2023/01/04 03:50:09;;;;;;;60.27;36.27;;;;;;;4.01;98.19;100429.66;5072598;28;20262;-58
2023/01/04 03:52:38;;;;;;;58.03;36.77;;;;;;;3.84;97.77;100432.94;5072472;28;20195;-59
2023/01/04 03:55:08;;;;;;;49.47;34.93;;;;;;;3.68;98.44;100439.59;5072150;28;20676;-58
2023/01/04 03:57:36;;;;;;;59.63;36.33;;;;;;;3.61;98.91;100440.88;5071873;28;20190;-57
2023/01/04 04:00:09;;;;;;;53.07;34.50;;;;;;;3.54;99.38;100428.63;5072068;28;20197;-58
2023/01/04 04:02:36;;;;;;;49.73;33.13;;;;;;;3.48;99.10;100430.78;5072003;28;20231;-58
2023/01/04 04:10:34;;;;;;;52.97;32.30;;;;;;;2.80;100.00;100432.56;5072026;28;20223;-58
2023/01/04 04:13:00;;;;;;;52.70;32.67;;;;;;;2.65;100.00;100436.72;5057205;28;20200;-58
2023/01/04 04:15:27;;;;;;;52.20;32.73;;;;;;;2.65;100.00;100441.78;5051880;28;20220;-57
2023/01/04 04:17:54;;;;;;;57.13;34.50;;;;;;;2.60;100.00;100429.59;5051841;28;20203;-57
2023/01/04 04:20:21;;;;;;;51.77;34.20;;;;;;;2.64;100.00;100437.47;5052500;28;20207;-58
2023/01/04 04:22:48;;;;;;;50.70;35.27;;;;;;;2.71;100.00;100426.97;5074936;28;20190;-57
2023/01/04 04:25:17;;;;;;;53.43;34.27;;;;;;;2.80;100.00;100427.50;5075875;28;20666;-58
2023/01/04 04:27:45;;;;;;;56.30;34.43;;;;;;;2.85;100.00;100438.84;5075939;28;20191;-58
2023/01/04 04:30:13;;;;;;;62.80;37.93;;;;;;;2.81;100.00;100446.16;5057339;28;20224;-57
2023/01/04 04:32:39;;;;;;;51.23;35.70;;;;;;;2.78;100.00;100445.94;5055661;28;20280;-58
2023/01/04 04:35:07;;;;;;;53.20;35.63;;;;;;;2.81;100.00;100447.03;5055697;28;20192;-58
2023/01/04 04:37:36;;;;;;;53.53;33.17;;;;;;;2.79;100.00;100445.19;5055535;28;20246;-57
2023/01/04 04:40:02;;;;;;;53.23;36.10;;;;;;;2.82;100.00;100448.78;5056006;28;20200;-57
2023/01/04 04:42:28;;;;;;;53.60;35.83;;;;;;;2.87;100.00;100449.06;5055535;28;20659;-57
2023/01/04 04:44:56;;;;;;;51.00;34.63;;;;;;;2.91;100.00;100444.25;5055555;28;20203;-58
2023/01/04 04:47:23;;;;;;;53.90;35.50;;;;;;;3.01;100.00;100438.09;5055413;28;20583;-57
2023/01/04 04:49:50;;;;;;;54.43;36.70;;;;;;;3.05;100.00;100454.41;5055486;28;20648;-58
2023/01/04 04:52:17;;;;;;;52.60;36.33;;;;;;;3.12;100.00;100454.88;5055518;28;20192;-58
2023/01/04 04:54:44;;;;;;;53.70;36.10;;;;;;;3.08;100.00;100452.06;5055367;28;20195;-58
2023/01/04 04:57:10;;;;;;;52.20;34.53;;;;;;;3.16;100.00;100450.84;5055340;28;20191;-57
2023/01/04 04:59:37;;;;;;;46.87;33.43;;;;;;;3.17;100.00;100462.75;5055060;28;20192;-57
2023/01/04 05:02:05;;;;;;;45.93;33.67;;;;;;;3.00;100.00;100464.25;5054975;28;20207;-58
2023/01/04 05:04:32;;;;;;;45.70;32.67;;;;;;;2.94;100.00;100463.88;5055529;28;20266;-58
2023/01/04 05:06:59;;;;;;;42.30;32.30;;;;;;;2.89;100.00;100457.66;5054958;28;20202;-57
2023/01/04 05:09:26;;;;;;;43.50;31.37;;;;;;;2.98;100.00;100475.97;5054982;28;20199;-57
2023/01/04 05:14:36;;;;;;;39.07;28.40;;;;;;;2.78;99.57;100489.09;5054669;28;20228;-60
2023/01/04 05:17:05;;;;;;;43.60;30.63;;;;;;;2.62;99.72;100488.91;5053595;28;20258;-58
2023/01/04 05:19:31;;;;;;;40.57;28.37;;;;;;;2.62;99.98;100489.78;5053691;28;20188;-58
2023/01/04 05:21:58;;;;;;;43.47;29.93;;;;;;;2.56;100.00;100498.66;5053407;28;20579;-57
2023/01/04 05:24:25;;;;;;;41.43;28.10;;;;;;;2.57;100.00;100500.44;5053773;28;20651;-58
2023/01/04 05:26:52;;;;;;;40.00;28.80;;;;;;;2.42;100.00;100504.53;5062039;28;20195;-58
2023/01/04 05:31:59;;;;;;;42.37;30.67;;;;;;;2.37;100.00;100507.66;5072920;28;20212;-58
2023/01/04 05:34:27;;;;;;;56.33;34.93;;;;;;;2.24;100.00;100510.16;5073670;28;20188;-58
2023/01/04 05:36:54;;;;;;;46.20;29.30;;;;;;;2.28;100.00;100501.97;5073376;28;20189;-57
2023/01/04 05:39:20;;;;;;;44.33;31.13;;;;;;;2.39;100.00;100503.53;5073261;28;20654;-57
2023/01/04 05:44:46;;;;;;;46.83;31.97;;;;;;;2.56;100.00;100504.63;5030927;28;20245;-58
2023/01/04 05:47:13;;;;;;;44.70;30.27;;;;;;;2.65;100.00;100514.47;5031031;28;20244;-57
2023/01/04 05:49:41;;;;;;;45.60;31.93;;;;;;;2.73;100.00;100514.19;5031213;28;20238;-58
2023/01/04 05:52:08;;;;;;;47.97;37.25;;;;;;;2.89;100.00;100516.91;5030039;28;20506;-58
2023/01/04 05:54:34;;;;;;;40.53;31.30;;;;;;;3.04;100.00;100511.03;5030846;28;20653;-58
2023/01/04 05:57:01;;;;;;;53.60;30.53;;;;;;;3.12;99.91;100514.91;5030932;28;20193;-57
2023/01/04 05:59:28;;;;;;;42.50;30.00;;;;;;;3.17;99.53;100524.56;5031334;28;20268;-58
2023/01/04 06:01:55;;;;;;;45.53;31.60;;;;;;;3.04;98.84;100513.56;5030682;28;20196;-58
2023/01/04 06:04:21;;;;;;;40.20;29.73;;;;;;;3.14;99.00;100523.50;5031236;28;20614;-58
2023/01/04 06:06:50;;;;;;;42.40;30.50;;;;;;;3.22;98.49;100523.19;5030830;28;20778;-57
2023/01/04 06:09:16;;;;;;;50.03;33.20;;;;;;;3.19;98.59;100529.72;5030653;28;20634;-57
2023/01/04 06:11:43;;;;;;;43.73;30.77;;;;;;;3.26;98.01;100534.41;5030684;28;20219;-58
2023/01/04 06:14:10;;;;;;;47.73;31.07;;;;;;;3.31;97.92;100528.84;4989198;28;1202583;-58
2023/01/04 06:16:37;;;;;;;53.70;37.17;;;;;;;3.38;97.49;100533.50;5050922;28;20087;-58
2023/01/04 06:19:04;;;;;;;58.13;35.60;;;;;;;3.38;97.69;100533.50;5053785;28;20190;-58
2023/01/04 06:21:31;;;;;;;51.63;34.43;;;;;;;3.46;96.96;100533.97;5053769;28;20659;-58
2023/01/04 06:23:59;;;;;;;54.60;36.93;;;;;;;3.42;96.73;100520.22;5053637;28;20190;-58
2023/01/04 06:26:26;;;;;;;48.00;34.83;;;;;;;3.57;97.02;100548.22;5053016;28;20196;-57
2023/01/04 06:28:53;;;;;;;50.10;36.17;;;;;;;3.69;96.54;100553.13;5053141;28;20567;-58
2023/01/04 06:31:20;;;;;;;55.37;35.10;;;;;;;3.67;96.40;100542.00;5053364;28;20229;-58
2023/01/04 06:33:47;;;;;;;49.27;35.27;;;;;;;3.78;95.69;100554.56;5053366;28;20579;-58
2023/01/04 06:36:14;;;;;;;50.90;36.40;;;;;;;3.82;95.10;100550.56;5053261;28;20682;-57
2023/01/04 06:38:40;;;;;;;49.87;35.20;;;;;;;3.89;94.55;100562.84;5053592;28;20196;-57
2023/01/04 06:41:09;;;;;;;62.10;38.47;;;;;;;3.96;95.01;100565.81;5052941;28;20647;-58
2023/01/04 06:43:35;;;;;;;70.23;41.63;;;;;;;4.39;95.66;100565.78;5053144;28;20184;-58
2023/01/04 06:46:02;;;;;;;62.37;39.63;;;;;;;4.72;91.82;100573.66;5052404;28;20185;-58
2023/01/04 06:48:29;;;;;;;60.63;39.63;;;;;;;4.41;90.53;100534.56;5053025;28;20184;-58
2023/01/04 06:50:56;;;;;;;59.67;37.57;;;;;;;4.22;91.57;100577.53;5052743;28;20227;-58
2023/01/04 06:53:23;;;;;;;51.17;35.63;;;;;;;4.38;93.08;100582.72;5055566;28;20193;-58
2023/01/04 06:55:50;;;;;;;48.73;36.30;;;;;;;4.88;91.93;100595.78;5053168;28;20245;-58
2023/01/04 06:58:18;;;;;;;56.13;36.00;;;;;;;5.53;89.98;100585.75;5052696;28;20191;-58
2023/01/04 07:00:46;;;;;;;51.53;34.17;;;;;;;5.42;86.46;100579.22;5052580;28;20255;-58
2023/01/04 07:03:13;;;;;;;53.97;35.30;;;;;;;5.16;86.14;100582.91;5052564;28;20196;-58
2023/01/04 07:05:39;;;;;;;58.60;39.53;;;;;;;4.84;87.36;100573.47;5052511;28;20199;-58
2023/01/04 07:08:06;;;;;;;56.77;38.37;;;;;;;4.62;89.03;100580.69;5062652;28;20202;-58
2023/01/04 07:10:34;;;;;;;71.23;41.10;;;;;;;4.47;90.00;100572.19;5072523;28;20633;-58
2023/01/04 07:13:01;;;;;;;76.90;48.70;;;;;;;4.48;91.44;100571.38;5072388;28;20306;-57
2023/01/04 07:15:29;;;;;;;71.97;43.97;;;;;;;4.87;90.59;100563.47;5067095;28;20222;-57
2023/01/04 07:17:56;;;;;;;61.33;41.40;;;;;;;4.98;90.35;100567.47;5058730;28;20260;-58
2023/01/04 07:20:23;;;;;;;72.30;44.00;;;;;;;4.95;89.02;100572.41;5052402;28;20192;-58
2023/01/04 07:22:50;;;;;;;70.93;45.87;;;;;;;4.90;89.01;100588.22;5052120;28;20617;-58
2023/01/04 07:25:17;;;;;;;81.10;44.97;;;;;;;4.86;89.82;100574.47;5052097;28;20664;-58
2023/01/04 07:27:43;;;;;;;72.37;43.93;;;;;;;4.82;89.60;100584.38;5052158;28;20714;-57
2023/01/04 07:30:12;;;;;;;88.90;53.17;;;;;;;4.72;90.49;100560.06;5052597;28;20186;-59
2023/01/04 07:32:40;;;;;;;83.77;52.90;;;;;;;4.75;90.61;100578.94;5052114;28;20224;-57
2023/01/04 07:35:07;;;;;;;71.93;46.43;;;;;;;4.68;91.41;100581.94;5064347;28;20194;-60
2023/01/04 07:37:34;;;;;;;63.27;41.80;;;;;;;4.63;91.89;100575.69;5072037;28;20279;-57
2023/01/04 07:40:01;;;;;;;63.27;42.33;;;;;;;4.71;91.93;100584.66;5072076;28;20190;-57
2023/01/04 07:42:28;;;;;;;68.30;41.93;;;;;;;4.77;92.29;100576.47;5072090;28;20195;-57
2023/01/04 07:44:55;;;;;;;61.53;42.17;;;;;;;4.87;92.54;100591.47;5071986;28;20199;-58
2023/01/04 07:47:21;;;;;;;65.53;42.57;;;;;;;4.98;92.77;100584.44;5072116;28;20568;-58
2023/01/04 07:49:49;;;;;;;65.17;43.53;;;;;;;5.07;92.43;100585.81;5072030;28;20189;-58
2023/01/04 07:52:16;;;;;;;75.60;47.60;;;;;;;5.05;91.93;100553.44;5071954;28;20229;-57
2023/01/04 07:54:43;;;;;;;71.17;46.17;;;;;;;5.27;91.82;100580.13;5072537;28;20183;-58
2023/01/04 07:57:10;;;;;;;73.03;52.72;;;;;;;5.35;91.66;100572.94;5070736;28;20750;-57
2023/01/04 07:59:37;;;;;;;67.73;46.73;;;;;;;5.51;92.59;100584.81;5071987;28;20198;-58
2023/01/04 08:02:04;;;;;;;69.67;43.17;;;;;;;5.68;91.74;100590.03;5071880;28;20198;-58
2023/01/04 08:04:30;;;;;;;66.80;45.03;;;;;;;5.75;90.95;100586.09;5071878;28;20220;-56
2023/01/04 08:06:59;;;;;;;74.63;54.83;;;;;;;5.88;90.87;100584.31;5070688;28;20509;-57
2023/01/04 08:09:25;;;;;;;63.00;46.97;;;;;;;6.12;90.45;100587.25;5071518;28;20192;-58
2023/01/04 08:11:52;;;;;;;72.17;46.50;;;;;;;6.20;89.79;100580.00;5071529;28;20245;-57
2023/01/04 08:14:19;;;;;;;60.87;44.40;;;;;;;6.36;89.65;100588.50;5071813;28;20311;-58
2023/01/04 08:16:46;;;;;;;65.80;43.53;;;;;;;6.56;89.60;100591.16;5071536;28;20677;-57
2023/01/04 08:19:14;;;;;;;60.27;41.87;;;;;;;6.62;89.40;100583.81;5071284;28;20213;-57
2023/01/04 08:21:41;;;;;;;57.30;41.40;;;;;;;6.79;89.24;100599.13;5071043;28;20721;-58
2023/01/04 08:24:11;;;;;;;65.32;45.38;;;;;;;7.02;89.34;100595.16;5071318;28;20430;-57
2023/01/04 08:26:38;;;;;;;62.83;41.27;;;;;;;7.18;88.97;100592.50;5070814;28;20180;-58
2023/01/04 08:29:05;;;;;;;52.17;41.20;;;;;;;7.28;88.67;100588.72;5070901;28;20771;-58
2023/01/04 08:31:33;;;;;;;54.63;35.73;;;;;;;7.43;88.41;100590.28;5070877;28;20211;-57
2023/01/04 08:34:04;;;;;;;48.05;38.08;;;;;;;7.75;88.64;100580.66;5067465;28;20434;-57
2023/01/04 08:36:33;;;;;;;44.20;34.50;;;;;;;7.84;87.90;100564.03;5069073;28;20666;-58
2023/01/04 08:39:03;;;;;;;49.37;34.57;;;;;;;8.16;86.64;100584.19;5065491;28;20196;-57
2023/01/04 08:41:49;;;;;;;50.20;33.27;;;;;;;8.32;86.00;100585.78;5051505;28;20204;-54
2023/01/04 08:44:16;;;;;;;50.37;33.27;;;;;;;8.48;85.96;100570.25;5052952;28;20193;-54
2023/01/04 08:46:43;;;;;;;46.00;34.43;;;;;;;8.69;85.48;100560.88;5056118;28;20196;-53
2023/01/04 08:49:12;;;;;;;46.50;33.63;;;;;;;8.86;84.99;100571.81;5051812;28;20245;-53
2023/01/04 08:51:39;;;;;;;43.80;30.37;;;;;;;8.99;84.53;100578.28;5060562;28;20317;-54
2023/01/04 08:54:06;;;;;;;39.63;30.10;;;;;;;9.15;83.94;100566.13;5071864;28;20217;-54
2023/01/04 08:56:34;;;;;;;41.00;29.90;;;;;;;9.26;83.92;100580.25;5071297;28;20191;-55
2023/01/04 08:59:01;;;;;;;39.73;26.93;;;;;;;9.35;83.42;100578.03;5071236;28;20193;-54
2023/01/04 09:01:28;;;;;;;39.97;27.83;;;;;;;9.55;82.94;100565.97;5071067;28;20198;-57
2023/01/04 09:03:56;;;;;;;37.57;28.40;;;;;;;9.55;82.72;100549.69;5067822;28;20191;-57
2023/01/04 09:06:23;;;;;;;36.77;26.53;;;;;;;9.69;82.79;100557.09;5067431;28;20183;-57
2023/01/04 09:08:50;;;;;;;37.83;27.40;;;;;;;9.72;82.09;100546.06;5072985;28;20256;-56
2023/01/04 09:11:19;;;;;;;39.23;26.93;;;;;;;9.97;81.95;100548.69;5074491;28;20223;-57
2023/01/04 09:13:48;;;;;;;36.40;26.37;;;;;;;10.07;81.53;100546.50;5074223;28;20680;-57
2023/01/04 09:16:17;;;;;;;42.10;26.47;;;;;;;10.15;81.60;100543.34;5075285;28;20206;-57
2023/01/04 09:18:45;;;;;;;33.67;26.10;;;;;;;10.29;81.34;100543.00;5074569;28;20188;-56
2023/01/04 09:21:14;;;;;;;33.13;25.03;;;;;;;10.46;80.55;100543.56;5074661;28;20196;-57
2023/01/04 09:23:42;;;;;;;33.00;25.60;;;;;;;10.59;80.49;100541.44;5074479;28;20192;-56
2023/01/04 09:26:10;;;;;;;34.47;26.43;;;;;;;10.66;79.95;100533.09;5073507;28;20237;-56
2023/01/04 09:28:37;;;;;;;35.53;25.57;;;;;;;10.81;80.01;100527.59;5069281;28;20196;-56
2023/01/04 09:31:09;;;;;;;38.47;27.10;;;;;;;10.95;79.84;100530.59;5071800;28;20555;-56
2023/01/04 09:33:36;;;;;;;37.30;26.40;;;;;;;11.08;79.54;100525.88;5071742;28;20293;-57
2023/01/04 09:36:03;;;;;;;37.70;24.57;;;;;;;11.21;79.05;100527.97;5073633;28;20191;-57
2023/01/04 09:38:30;;;;;;;29.60;21.57;;;;;;;11.29;79.49;100491.34;5073350;28;20191;-56
2023/01/04 09:41:08;;;;;;;25.60;21.30;;;;;;;11.53;79.13;100504.91;5071188;28;20617;-56
2023/01/04 09:43:42;;;;;;;34.03;20.30;;;;;;;11.69;78.16;100508.00;5073542;28;20266;-56
2023/01/04 09:46:15;;;;;;;28.90;19.60;;;;;;;11.81;78.31;100499.75;5073894;28;20179;-56
2023/01/04 09:48:44;;;;;;;25.33;18.83;;;;;;;11.98;77.62;100500.16;5071767;28;20195;-57
2023/01/04 09:51:16;;;;;;;24.10;17.00;;;;;;;12.26;75.71;100492.31;5073495;28;20200;-57
2023/01/04 09:53:47;;;;;;;19.77;16.60;;;;;;;12.33;74.71;100484.78;5070975;28;20188;-57
2023/01/04 09:56:23;;;;;;;19.47;15.70;;;;;;;12.50;74.04;100485.19;5073767;28;20187;-56
2023/01/04 09:58:52;;;;;;;20.43;15.70;;;;;;;12.61;73.60;100491.47;5074180;28;20183;-57
2023/01/04 10:01:23;;;;;;;20.20;16.13;;;;;;;12.65;72.65;100476.97;5071137;28;20188;-57
2023/01/04 10:03:59;;;;;;;18.53;15.43;;;;;;;12.84;71.87;100476.56;5068304;28;20226;-57
2023/01/04 10:06:26;;;;;;;21.73;16.50;;;;;;;12.84;72.02;100463.66;5072750;28;20198;-57
2023/01/04 10:08:57;;;;;;;23.10;17.77;;;;;;;12.95;72.14;100482.81;5070304;28;20738;-56
2023/01/04 10:11:33;;;;;;;19.07;15.80;;;;;;;12.92;71.12;100444.06;5071617;28;20192;-57
2023/01/04 10:14:18;;;;;;;17.77;14.57;;;;;;;13.13;70.52;100475.50;5071993;28;20221;-57
2023/01/04 10:17:01;;;;;;;19.07;14.63;;;;;;;12.95;69.52;100426.94;5073110;28;20199;-57
2023/01/04 10:19:40;;;;;;;19.10;15.03;;;;;;;13.24;69.55;100463.69;5071666;28;20200;-58
2023/01/04 10:22:14;;;;;;;17.90;15.57;;;;;;;13.38;69.24;100462.28;5071388;28;20195;-58
2023/01/04 10:24:52;;;;;;;24.47;15.70;;;;;;;13.41;68.71;100469.22;5062320;28;20198;-57
2023/01/04 10:27:30;;;;;;;20.17;15.13;;;;;;;13.48;68.63;100469.41;5053082;28;20614;-57
2023/01/04 10:30:16;;;;;;;21.10;14.60;;;;;;;13.50;67.52;100472.00;5053786;28;20291;-57
2023/01/04 10:32:46;;;;;;;19.23;14.87;;;;;;;13.51;67.32;100458.25;5052949;28;20221;-57
2023/01/04 10:35:20;;;;;;;18.75;14.25;;;;;;;13.38;67.05;100433.00;5052968;28;20485;-57
2023/01/04 10:37:50;;;;;;;21.07;15.77;;;;;;;13.59;67.17;100461.84;5052677;28;20191;-57
2023/01/04 10:40:17;;;;;;;21.80;16.03;;;;;;;13.77;66.24;100461.31;5052846;28;20200;-57
2023/01/04 10:42:56;;;;;;;18.03;15.23;;;;;;;13.84;65.74;100461.47;5052922;28;20243;-57
2023/01/04 10:45:32;;;;;;;18.33;15.23;;;;;;;13.89;65.48;100456.41;5052999;28;20254;-56
2023/01/04 10:48:08;;;;;;;19.47;14.40;;;;;;;13.84;65.59;100445.09;5053448;28;20269;-57
2023/01/04 10:50:44;;;;;;;18.23;16.03;;;;;;;13.80;65.47;100436.44;5053061;28;20213;-57
2023/01/04 10:53:18;;;;;;;20.73;15.87;;;;;;;13.97;64.84;100450.53;5053010;28;20220;-57
2023/01/04 10:55:50;;;;;;;20.63;15.37;;;;;;;13.93;64.75;100440.97;5052690;28;20609;-57
2023/01/04 10:58:23;;;;;;;18.27;14.67;;;;;;;14.02;64.63;100440.25;5052547;28;20224;-57
2023/01/04 11:00:54;;;;;;;19.70;16.17;;;;;;;13.90;64.67;100412.47;5052279;28;20196;-57
2023/01/04 11:03:28;;;;;;;15.37;13.73;;;;;;;14.07;62.94;100438.63;5052378;28;20196;-57
2023/01/04 11:06:02;;;;;;;15.07;13.47;;;;;;;14.03;62.65;100421.34;5052611;28;20656;-57
2023/01/04 11:08:34;;;;;;;16.37;14.17;;;;;;;14.06;62.99;100439.47;5053130;28;20539;-57
2023/01/04 11:11:06;;;;;;;17.40;14.17;;;;;;;14.06;62.97;100442.06;5052619;28;20199;-57
2023/01/04 11:13:34;;;;;;;18.40;13.27;;;;;;;14.23;61.52;100435.44;5052090;28;20255;-57
2023/01/04 11:16:02;;;;;;;17.80;14.00;;;;;;;14.21;61.50;100429.38;5052572;28;20188;-57
2023/01/04 11:18:33;;;;;;;14.93;13.07;;;;;;;14.28;61.03;100435.53;5052314;28;20197;-57
2023/01/04 11:21:03;;;;;;;16.17;14.40;;;;;;;14.26;60.88;100438.06;5052759;28;20275;-56
2023/01/04 11:23:30;;;;;;;19.00;13.83;;;;;;;14.22;60.36;100418.22;5051857;28;20192;-56
2023/01/04 11:26:00;;;;;;;15.90;12.90;;;;;;;14.35;60.24;100443.44;5051925;28;20681;-56
2023/01/04 11:28:35;;;;;;;17.47;14.40;;;;;;;14.27;60.63;100415.69;5052377;28;20197;-57
2023/01/04 11:31:10;;;;;;;20.57;15.80;;;;;;;14.37;60.70;100438.28;5051985;28;20187;-56
2023/01/04 11:33:54;;;;;;;21.90;15.33;;;;;;;14.44;60.69;100429.78;5052876;28;20218;-56
2023/01/04 11:36:38;;;;;;;15.37;13.20;;;;;;;14.51;60.87;100427.31;5051969;28;20650;-57
2023/01/04 11:39:07;;;;;;;17.40;13.87;;;;;;;14.50;60.80;100432.47;5052646;28;20187;-57
2023/01/04 11:41:34;;;;;;;16.37;13.33;;;;;;;14.45;60.55;100437.56;5051957;28;20196;-57
2023/01/04 11:44:03;;;;;;;15.83;13.60;;;;;;;14.08;59.80;100375.75;5052108;28;20253;-58
2023/01/04 11:46:31;;;;;;;14.47;12.27;;;;;;;14.45;59.32;100428.97;5051775;28;20197;-57
2023/01/04 11:48:59;;;;;;;18.43;13.93;;;;;;;14.52;59.24;100431.66;5051743;28;20188;-56
2023/01/04 11:51:39;;;;;;;18.13;14.77;;;;;;;14.51;59.75;100429.91;5051762;28;20188;-56
2023/01/04 11:54:17;;;;;;;17.50;14.47;;;;;;;14.44;58.90;100391.00;5051538;28;20250;-57
2023/01/04 11:56:58;;;;;;;16.63;13.73;;;;;;;14.51;58.80;100406.63;5051761;28;20229;-57
2023/01/04 11:59:25;;;;;;;18.03;13.80;;;;;;;14.57;59.30;100426.53;5051765;28;20198;-56
2023/01/04 12:02:16;;;;;;;17.23;13.90;;;;;;;14.63;59.63;100429.22;5051812;28;20188;-57
2023/01/04 12:04:44;;;;;;;15.53;12.73;;;;;;;14.77;59.06;100430.31;5051690;28;20285;-57
2023/01/04 12:07:22;;;;;;;16.10;12.80;;;;;;;14.80;58.81;100437.22;5051877;28;20204;-57
2023/01/04 12:09:49;;;;;;;15.97;13.37;;;;;;;14.82;59.20;100435.53;5051647;28;20645;-57
2023/01/04 12:12:16;;;;;;;15.07;13.50;;;;;;;14.79;58.81;100428.59;5051530;28;20583;-57
2023/01/04 12:14:47;;;;;;;14.30;12.60;;;;;;;14.80;58.78;100435.53;5051468;28;20224;-57
2023/01/04 12:17:22;;;;;;;16.20;12.97;;;;;;;14.77;58.96;100425.13;5051008;28;20439;-57
2023/01/04 12:19:53;;;;;;;16.13;13.57;;;;;;;14.77;59.00;100420.81;5051310;28;20204;-57